sensor_id;sensor_type;location;lat;lon;timestamp;pressure;altitude;pressure_sealevel;temperature;humidity
20624;BME280;10471;42.736;23.346;2023-05-27T00:01:35;95612.63;;;13.88;100.00
20624;BME280;10471;42.736;23.346;2023-05-27T00:04:00;95609.88;;;13.93;100.00
20624;BME280;10471;42.736;23.346;2023-05-27T00:06:26;95605.00;;;14.00;100.00
20624;BME280;10471;42.736;23.346;2023-05-27T00:08:51;95603.28;;;14.09;100.00
20624;BME280;10471;42.736;23.346;2023-05-27T00:11:16;95606.88;;;14.18;100.00
20624;BME280;10471;42.736;23.346;2023-05-27T00:13:42;95605.84;;;14.14;100.00
20624;BME280;10471;42.736;23.346;2023-05-27T00:16:07;95603.72;;;14.16;100.00
20624;BME280;10471;42.736;23.346;2023-05-27T00:18:33;95604.13;;;14.23;100.00
20624;BME280;10471;42.736;23.346;2023-05-27T00:20:59;95602.47;;;14.27;100.00
20624;BME280;10471;42.736;23.346;2023-05-27T00:23:24;95594.72;;;14.30;100.00
20624;BME280;10471;42.736;23.346;2023-05-27T00:25:50;95593.34;;;14.33;100.00
20624;BME280;10471;42.736;23.346;2023-05-27T00:28:15;95588.25;;;14.36;100.00
20624;BME280;10471;42.736;23.346;2023-05-27T00:30:41;95589.03;;;14.37;100.00
20624;BME280;10471;42.736;23.346;2023-05-27T00:33:06;95593.25;;;14.38;100.00
20624;BME280;10471;42.736;23.346;2023-05-27T00:35:31;95592.28;;;14.34;100.00
20624;BME280;10471;42.736;23.346;2023-05-27T00:37:57;95587.66;;;14.39;100.00
20624;BME280;10471;42.736;23.346;2023-05-27T00:40:23;95585.31;;;14.38;100.00
20624;BME280;10471;42.736;23.346;2023-05-27T00:42:49;95582.66;;;14.38;100.00
20624;BME280;10471;42.736;23.346;2023-05-27T00:45:15;95574.09;;;14.41;100.00
20624;BME280;10471;42.736;23.346;2023-05-27T00:47:40;95568.69;;;14.45;100.00
20624;BME280;10471;42.736;23.346;2023-05-27T00:50:06;95580.59;;;14.48;100.00
20624;BME280;10471;42.736;23.346;2023-05-27T00:52:33;95577.63;;;14.49;100.00
20624;BME280;10471;42.736;23.346;2023-05-27T00:54:59;95579.22;;;14.50;100.00
20624;BME280;10471;42.736;23.346;2023-05-27T00:57:25;95579.91;;;14.43;100.00
20624;BME280;10471;42.736;23.346;2023-05-27T00:59:51;95571.75;;;14.39;100.00
20624;BME280;10471;42.736;23.346;2023-05-27T01:02:17;95573.50;;;14.30;100.00
20624;BME280;10471;42.736;23.346;2023-05-27T01:04:42;95568.69;;;14.32;100.00
20624;BME280;10471;42.736;23.346;2023-05-27T01:07:12;95558.97;;;14.28;100.00
20624;BME280;10471;42.736;23.346;2023-05-27T01:15:00;95541.28;;;14.37;100.00
20624;BME280;10471;42.736;23.346;2023-05-27T01:17:26;95537.78;;;14.41;100.00
20624;BME280;10471;42.736;23.346;2023-05-27T01:19:53;95531.56;;;14.45;100.00
20624;BME280;10471;42.736;23.346;2023-05-27T01:22:20;95537.84;;;14.49;100.00
20624;BME280;10471;42.736;23.346;2023-05-27T01:24:45;95524.00;;;14.52;100.00
20624;BME280;10471;42.736;23.346;2023-05-27T01:27:11;95517.34;;;14.55;100.00
20624;BME280;10471;42.736;23.346;2023-05-27T01:29:39;95519.69;;;14.56;100.00
20624;BME280;10471;42.736;23.346;2023-05-27T01:32:15;95518.09;;;14.55;100.00
20624;BME280;10471;42.736;23.346;2023-05-27T01:35:25;95514.38;;;14.56;100.00
20624;BME280;10471;42.736;23.346;2023-05-27T01:37:54;95520.09;;;14.63;100.00
20624;BME280;10471;42.736;23.346;2023-05-27T01:40:21;95515.75;;;14.54;100.00
20624;BME280;10471;42.736;23.346;2023-05-27T01:42:47;95516.06;;;14.52;100.00
20624;BME280;10471;42.736;23.346;2023-05-27T01:45:14;95511.63;;;14.48;100.00
20624;BME280;10471;42.736;23.346;2023-05-27T01:47:40;95499.84;;;14.41;100.00
20624;BME280;10471;42.736;23.346;2023-05-27T01:50:06;95506.31;;;14.35;100.00
20624;BME280;10471;42.736;23.346;2023-05-27T01:52:32;95517.13;;;14.25;100.00
20624;BME280;10471;42.736;23.346;2023-05-27T01:54:57;95514.38;;;14.16;100.00
20624;BME280;10471;42.736;23.346;2023-05-27T01:57:24;95518.97;;;14.11;100.00
20624;BME280;10471;42.736;23.346;2023-05-27T01:59:50;95521.19;;;14.04;100.00
20624;BME280;10471;42.736;23.346;2023-05-27T02:02:15;95519.03;;;14.06;100.00
20624;BME280;10471;42.736;23.346;2023-05-27T02:04:40;95515.69;;;14.00;100.00
20624;BME280;10471;42.736;23.346;2023-05-27T02:07:06;95516.78;;;13.99;100.00
20624;BME280;10471;42.736;23.346;2023-05-27T02:09:31;95512.34;;;13.95;100.00
20624;BME280;10471;42.736;23.346;2023-05-27T02:11:57;95510.78;;;13.94;100.00
20624;BME280;10471;42.736;23.346;2023-05-27T02:14:22;95514.88;;;13.86;100.00
20624;BME280;10471;42.736;23.346;2023-05-27T02:16:48;95511.94;;;13.88;100.00
20624;BME280;10471;42.736;23.346;2023-05-27T02:19:15;95512.72;;;13.75;100.00
20624;BME280;10471;42.736;23.346;2023-05-27T02:21:40;95521.63;;;13.79;100.00
20624;BME280;10471;42.736;23.346;2023-05-27T02:24:06;95523.69;;;13.82;100.00
20624;BME280;10471;42.736;23.346;2023-05-27T02:26:31;95523.22;;;13.80;100.00
20624;BME280;10471;42.736;23.346;2023-05-27T02:28:56;95523.69;;;13.82;100.00
20624;BME280;10471;42.736;23.346;2023-05-27T02:31:22;95512.91;;;13.78;100.00
20624;BME280;10471;42.736;23.346;2023-05-27T02:33:47;95516.84;;;13.81;100.00
20624;BME280;10471;42.736;23.346;2023-05-27T02:36:13;95511.81;;;13.66;100.00
20624;BME280;10471;42.736;23.346;2023-05-27T02:38:38;95519.75;;;13.66;100.00
20624;BME280;10471;42.736;23.346;2023-05-27T02:41:04;95523.63;;;13.55;100.00
20624;BME280;10471;42.736;23.346;2023-05-27T02:43:30;95521.47;;;13.57;100.00
20624;BME280;10471;42.736;23.346;2023-05-27T02:45:55;95527.13;;;13.51;100.00
20624;BME280;10471;42.736;23.346;2023-05-27T02:48:20;95525.25;;;13.51;100.00
20624;BME280;10471;42.736;23.346;2023-05-27T02:50:46;95520.94;;;13.42;100.00
20624;BME280;10471;42.736;23.346;2023-05-27T02:53:11;95515.06;;;13.45;100.00
20624;BME280;10471;42.736;23.346;2023-05-27T02:55:37;95517.69;;;13.45;100.00
20624;BME280;10471;42.736;23.346;2023-05-27T02:58:02;95519.56;;;13.44;100.00
20624;BME280;10471;42.736;23.346;2023-05-27T03:00:30;95513.22;;;13.45;100.00
20624;BME280;10471;42.736;23.346;2023-05-27T03:02:55;95515.28;;;13.48;100.00
20624;BME280;10471;42.736;23.346;2023-05-27T03:05:21;95514.03;;;13.59;100.00
20624;BME280;10471;42.736;23.346;2023-05-27T03:07:46;95503.44;;;13.59;100.00
20624;BME280;10471;42.736;23.346;2023-05-27T03:10:12;95501.88;;;13.58;100.00
20624;BME280;10471;42.736;23.346;2023-05-27T03:12:37;95508.16;;;13.62;100.00
20624;BME280;10471;42.736;23.346;2023-05-27T03:15:03;95514.03;;;13.59;100.00
20624;BME280;10471;42.736;23.346;2023-05-27T03:17:29;95515.41;;;13.57;100.00
20624;BME280;10471;42.736;23.346;2023-05-27T03:19:54;95512.44;;;13.58;100.00
20624;BME280;10471;42.736;23.346;2023-05-27T03:22:19;95520.41;;;13.58;100.00
20624;BME280;10471;42.736;23.346;2023-05-27T03:24:45;95510.97;;;13.52;100.00
20624;BME280;10471;42.736;23.346;2023-05-27T03:27:11;95521.06;;;13.50;100.00
20624;BME280;10471;42.736;23.346;2023-05-27T03:29:36;95509.88;;;13.53;100.00
20624;BME280;10471;42.736;23.346;2023-05-27T03:32:02;95510.78;;;13.62;100.00
20624;BME280;10471;42.736;23.346;2023-05-27T03:34:27;95509.63;;;13.68;100.00
20624;BME280;10471;42.736;23.346;2023-05-27T03:36:53;95522.22;;;13.76;100.00
20624;BME280;10471;42.736;23.346;2023-05-27T03:39:18;95521.34;;;13.80;100.00
20624;BME280;10471;42.736;23.346;2023-05-27T03:41:44;95530.00;;;13.86;100.00
20624;BME280;10471;42.736;23.346;2023-05-27T03:44:09;95533.97;;;14.02;100.00
20624;BME280;10471;42.736;23.346;2023-05-27T03:46:35;95537.03;;;14.09;100.00
20624;BME280;10471;42.736;23.346;2023-05-27T03:49:01;95533.38;;;14.05;100.00
20624;BME280;10471;42.736;23.346;2023-05-27T03:51:27;95533.38;;;14.05;100.00
20624;BME280;10471;42.736;23.346;2023-05-27T03:53:53;95531.06;;;14.17;100.00
20624;BME280;10471;42.736;23.346;2023-05-27T03:56:18;95534.78;;;14.16;100.00
20624;BME280;10471;42.736;23.346;2023-05-27T03:58:44;95530.47;;;14.20;100.00
20624;BME280;10471;42.736;23.346;2023-05-27T04:01:09;95531.22;;;14.07;100.00
20624;BME280;10471;42.736;23.346;2023-05-27T04:03:35;95531.00;;;14.03;100.00
20624;BME280;10471;42.736;23.346;2023-05-27T04:06:02;95535.78;;;14.20;100.00
20624;BME280;10471;42.736;23.346;2023-05-27T04:08:28;95535.00;;;14.33;100.00
20624;BME280;10471;42.736;23.346;2023-05-27T04:10:54;95530.88;;;14.27;100.00
20624;BME280;10471;42.736;23.346;2023-05-27T04:13:19;95532.06;;;14.34;100.00
20624;BME280;10471;42.736;23.346;2023-05-27T04:15:45;95525.38;;;14.37;100.00
20624;BME280;10471;42.736;23.346;2023-05-27T04:18:11;95526.88;;;14.43;100.00
20624;BME280;10471;42.736;23.346;2023-05-27T04:20:40;95528.81;;;14.50;100.00
20624;BME280;10471;42.736;23.346;2023-05-27T04:23:08;95533.53;;;14.53;100.00
20624;BME280;10471;42.736;23.346;2023-05-27T04:25:34;95531.66;;;14.67;100.00
20624;BME280;10471;42.736;23.346;2023-05-27T04:28:00;95535.69;;;14.78;100.00
20624;BME280;10471;42.736;23.346;2023-05-27T04:30:29;95533.22;;;14.95;100.00
20624;BME280;10471;42.736;23.346;2023-05-27T04:32:55;95532.50;;;15.03;100.00
20624;BME280;10471;42.736;23.346;2023-05-27T04:35:20;95537.69;;;15.08;100.00
20624;BME280;10471;42.736;23.346;2023-05-27T04:37:47;95540.06;;;14.96;100.00
20624;BME280;10471;42.736;23.346;2023-05-27T04:40:13;95550.78;;;14.91;100.00
20624;BME280;10471;42.736;23.346;2023-05-27T04:42:38;95550.69;;;14.96;100.00
20624;BME280;10471;42.736;23.346;2023-05-27T04:45:04;95548.03;;;14.96;100.00
20624;BME280;10471;42.736;23.346;2023-05-27T04:47:32;95555.03;;;14.92;100.00
20624;BME280;10471;42.736;23.346;2023-05-27T04:49:58;95547.16;;;14.87;100.00
20624;BME280;10471;42.736;23.346;2023-05-27T04:52:26;95548.53;;;14.98;100.00
20624;BME280;10471;42.736;23.346;2023-05-27T04:54:52;95547.94;;;15.01;100.00
20624;BME280;10471;42.736;23.346;2023-05-27T04:57:20;95548.94;;;15.05;100.00
20624;BME280;10471;42.736;23.346;2023-05-27T04:59:46;95538.75;;;14.85;100.00
20624;BME280;10471;42.736;23.346;2023-05-27T05:02:23;95540.50;;;14.76;100.00
20624;BME280;10471;42.736;23.346;2023-05-27T05:04:52;95542.88;;;14.64;100.00
20624;BME280;10471;42.736;23.346;2023-05-27T05:07:17;95541.88;;;14.60;100.00
20624;BME280;10471;42.736;23.346;2023-05-27T05:09:44;95539.72;;;14.62;100.00
20624;BME280;10471;42.736;23.346;2023-05-27T05:12:10;95543.66;;;14.51;100.00
20624;BME280;10471;42.736;23.346;2023-05-27T05:14:35;95542.69;;;14.47;100.00
20624;BME280;10471;42.736;23.346;2023-05-27T05:17:01;95551.09;;;14.49;100.00
20624;BME280;10471;42.736;23.346;2023-05-27T05:19:26;95549.56;;;14.48;100.00
20624;BME280;10471;42.736;23.346;2023-05-27T05:21:51;95546.41;;;14.46;100.00
20624;BME280;10471;42.736;23.346;2023-05-27T05:24:17;95551.31;;;14.53;100.00
20624;BME280;10471;42.736;23.346;2023-05-27T05:26:42;95547.69;;;14.62;100.00
20624;BME280;10471;42.736;23.346;2023-05-27T05:29:09;95553.97;;;14.66;100.00
20624;BME280;10471;42.736;23.346;2023-05-27T05:31:35;95560.53;;;14.82;100.00
20624;BME280;10471;42.736;23.346;2023-05-27T05:34:01;95567.63;;;15.00;100.00
20624;BME280;10471;42.736;23.346;2023-05-27T05:36:26;95565.81;;;15.09;100.00
20624;BME280;10471;42.736;23.346;2023-05-27T05:38:51;95568.75;;;15.21;100.00
20624;BME280;10471;42.736;23.346;2023-05-27T05:41:17;95576.03;;;15.29;100.00
20624;BME280;10471;42.736;23.346;2023-05-27T05:43:42;95576.19;;;15.46;100.00
20624;BME280;10471;42.736;23.346;2023-05-27T05:46:07;95570.88;;;15.46;100.00
20624;BME280;10471;42.736;23.346;2023-05-27T05:48:33;95588.00;;;15.40;100.00
20624;BME280;10471;42.736;23.346;2023-05-27T05:50:58;95584.44;;;15.58;100.00
20624;BME280;10471;42.736;23.346;2023-05-27T05:53:26;95578.44;;;15.74;100.00
20624;BME280;10471;42.736;23.346;2023-05-27T05:55:51;95584.72;;;15.78;100.00
20624;BME280;10471;42.736;23.346;2023-05-27T05:58:16;95576.69;;;15.70;100.00
20624;BME280;10471;42.736;23.346;2023-05-27T06:00:42;95590.34;;;15.76;100.00
20624;BME280;10471;42.736;23.346;2023-05-27T06:03:07;95584.06;;;15.73;100.00
20624;BME280;10471;42.736;23.346;2023-05-27T06:05:33;95588.28;;;15.95;100.00
20624;BME280;10471;42.736;23.346;2023-05-27T06:07:58;95588.59;;;16.16;100.00
20624;BME280;10471;42.736;23.346;2023-05-27T06:10:23;95586.78;;;16.03;100.00
20624;BME280;10471;42.736;23.346;2023-05-27T06:12:49;95583.84;;;16.13;100.00
20624;BME280;10471;42.736;23.346;2023-05-27T06:15:14;95591.06;;;16.12;100.00
20624;BME280;10471;42.736;23.346;2023-05-27T06:17:40;95583.41;;;16.11;100.00
20624;BME280;10471;42.736;23.346;2023-05-27T06:20:06;95577.47;;;16.14;100.00
20624;BME280;10471;42.736;23.346;2023-05-27T06:22:32;95581.75;;;16.23;100.00
20624;BME280;10471;42.736;23.346;2023-05-27T06:24:57;95586.22;;;16.36;100.00
20624;BME280;10471;42.736;23.346;2023-05-27T06:27:22;95588.34;;;16.47;100.00
20624;BME280;10471;42.736;23.346;2023-05-27T06:29:48;95598.63;;;16.41;100.00
20624;BME280;10471;42.736;23.346;2023-05-27T06:32:14;95595.91;;;16.32;100.00
20624;BME280;10471;42.736;23.346;2023-05-27T06:34:40;95599.53;;;16.36;100.00
20624;BME280;10471;42.736;23.346;2023-05-27T06:37:05;95605.19;;;16.21;100.00
20624;BME280;10471;42.736;23.346;2023-05-27T06:39:31;95607.50;;;16.36;100.00
20624;BME280;10471;42.736;23.346;2023-05-27T06:41:56;95606.28;;;16.42;100.00
20624;BME280;10471;42.736;23.346;2023-05-27T06:44:21;95610.31;;;16.61;100.00
20624;BME280;10471;42.736;23.346;2023-05-27T06:46:47;95614.97;;;16.56;100.00
20624;BME280;10471;42.736;23.346;2023-05-27T06:49:12;95609.16;;;16.54;100.00
20624;BME280;10471;42.736;23.346;2023-05-27T06:51:38;95616.34;;;16.45;100.00
20624;BME280;10471;42.736;23.346;2023-05-27T06:54:03;95615.44;;;16.58;100.00
20624;BME280;10471;42.736;23.346;2023-05-27T06:56:28;95606.38;;;16.59;100.00
20624;BME280;10471;42.736;23.346;2023-05-27T06:58:54;95611.28;;;16.74;100.00
20624;BME280;10471;42.736;23.346;2023-05-27T07:01:19;95611.84;;;16.93;100.00
20624;BME280;10471;42.736;23.346;2023-05-27T07:03:45;95615.63;;;17.08;100.00
20624;BME280;10471;42.736;23.346;2023-05-27T07:06:10;95616.94;;;17.19;100.00
20624;BME280;10471;42.736;23.346;2023-05-27T07:08:35;95614.13;;;17.24;100.00
20624;BME280;10471;42.736;23.346;2023-05-27T07:11:01;95619.13;;;17.17;100.00
20624;BME280;10471;42.736;23.346;2023-05-27T07:13:26;95613.53;;;17.27;100.00
20624;BME280;10471;42.736;23.346;2023-05-27T07:15:52;95619.72;;;17.14;100.00
20624;BME280;10471;42.736;23.346;2023-05-27T07:18:17;95626.63;;;17.15;100.00
20624;BME280;10471;42.736;23.346;2023-05-27T07:20:42;95631.41;;;17.35;100.00
20624;BME280;10471;42.736;23.346;2023-05-27T07:23:08;95622.63;;;17.26;100.00
20624;BME280;10471;42.736;23.346;2023-05-27T07:25:34;95621.38;;;17.32;100.00
20624;BME280;10471;42.736;23.346;2023-05-27T07:27:59;95628.91;;;17.30;100.00
20624;BME280;10471;42.736;23.346;2023-05-27T07:30:25;95620.59;;;17.40;100.00
20624;BME280;10471;42.736;23.346;2023-05-27T07:32:51;95621.97;;;17.21;100.00
20624;BME280;10471;42.736;23.346;2023-05-27T07:35:17;95626.63;;;17.15;100.00
20624;BME280;10471;42.736;23.346;2023-05-27T07:37:42;95622.97;;;17.33;100.00
20624;BME280;10471;42.736;23.346;2023-05-27T07:40:08;95627.75;;;17.23;100.00
20624;BME280;10471;42.736;23.346;2023-05-27T07:42:33;95624.59;;;17.12;100.00
20624;BME280;10471;42.736;23.346;2023-05-27T07:44:58;95629.88;;;17.34;100.00
20624;BME280;10471;42.736;23.346;2023-05-27T07:47:24;95623.59;;;17.47;100.00
20624;BME280;10471;42.736;23.346;2023-05-27T07:49:50;95630.50;;;17.48;100.00
20624;BME280;10471;42.736;23.346;2023-05-27T07:52:16;95635.53;;;17.58;100.00
20624;BME280;10471;42.736;23.346;2023-05-27T07:54:41;95632.91;;;17.75;100.00
20624;BME280;10471;42.736;23.346;2023-05-27T07:57:07;95635.41;;;17.72;100.00
20624;BME280;10471;42.736;23.346;2023-05-27T07:59:32;95638.34;;;17.53;100.00
20624;BME280;10471;42.736;23.346;2023-05-27T08:01:58;95635.03;;;17.48;100.00
20624;BME280;10471;42.736;23.346;2023-05-27T08:04:23;95639.00;;;17.67;100.00
20624;BME280;10471;42.736;23.346;2023-05-27T08:06:49;95636.84;;;17.86;100.00
20624;BME280;10471;42.736;23.346;2023-05-27T08:09:14;95641.38;;;17.85;100.00
20624;BME280;10471;42.736;23.346;2023-05-27T08:11:40;95641.38;;;17.85;100.00
20624;BME280;10471;42.736;23.346;2023-05-27T08:14:05;95645.25;;;17.71;100.00
20624;BME280;10471;42.736;23.346;2023-05-27T08:16:30;95641.81;;;17.71;100.00
20624;BME280;10471;42.736;23.346;2023-05-27T08:18:56;95642.00;;;17.74;100.00
20624;BME280;10471;42.736;23.346;2023-05-27T08:21:21;95640.91;;;17.75;100.00
20624;BME280;10471;42.736;23.346;2023-05-27T08:23:47;95643.25;;;17.68;100.00
20624;BME280;10471;42.736;23.346;2023-05-27T08:26:12;95643.09;;;17.73;100.00
20624;BME280;10471;42.736;23.346;2023-05-27T08:28:37;95651.41;;;17.97;100.00
20624;BME280;10471;42.736;23.346;2023-05-27T08:31:03;95648.28;;;18.12;100.00
20624;BME280;10471;42.736;23.346;2023-05-27T08:33:29;95657.25;;;18.24;100.00
20624;BME280;10471;42.736;23.346;2023-05-27T08:35:56;95648.75;;;18.31;100.00
20624;BME280;10471;42.736;23.346;2023-05-27T08:38:21;95650.50;;;18.35;100.00
20624;BME280;10471;42.736;23.346;2023-05-27T08:40:47;95648.75;;;18.47;100.00
20624;BME280;10471;42.736;23.346;2023-05-27T08:43:13;95649.97;;;18.58;100.00
20624;BME280;10471;42.736;23.346;2023-05-27T08:45:38;95654.34;;;18.54;100.00
20624;BME280;10471;42.736;23.346;2023-05-27T08:48:08;95645.09;;;18.60;100.00
20624;BME280;10471;42.736;23.346;2023-05-27T08:50:34;95646.66;;;18.61;100.00
20624;BME280;10471;42.736;23.346;2023-05-27T08:53:00;95646.19;;;18.59;100.00
20624;BME280;10471;42.736;23.346;2023-05-27T08:55:29;95640.66;;;18.64;100.00
20624;BME280;10471;42.736;23.346;2023-05-27T08:57:56;95636.47;;;18.63;100.00
20624;BME280;10471;42.736;23.346;2023-05-27T09:00:23;95638.66;;;18.61;100.00
20624;BME280;10471;42.736;23.346;2023-05-27T09:02:48;95641.66;;;18.51;100.00
20624;BME280;10471;42.736;23.346;2023-05-27T09:05:15;95638.66;;;18.53;100.00
20624;BME280;10471;42.736;23.346;2023-05-27T09:07:41;95621.06;;;18.60;100.00
20624;BME280;10471;42.736;23.346;2023-05-27T09:10:07;95625.00;;;18.54;100.00
20624;BME280;10471;42.736;23.346;2023-05-27T09:12:33;95615.53;;;18.65;100.00
20624;BME280;10471;42.736;23.346;2023-05-27T09:14:59;95618.00;;;18.79;100.00
20624;BME280;10471;42.736;23.346;2023-05-27T09:17:25;95626.00;;;18.87;100.00
20624;BME280;10471;42.736;23.346;2023-05-27T09:19:51;95623.44;;;18.99;100.00
20624;BME280;10471;42.736;23.346;2023-05-27T09:22:29;95627.81;;;19.04;100.00
20624;BME280;10471;42.736;23.346;2023-05-27T09:24:56;95634.72;;;19.13;100.00
20624;BME280;10471;42.736;23.346;2023-05-27T09:27:25;95630.28;;;19.17;100.00
20624;BME280;10471;42.736;23.346;2023-05-27T09:29:51;95624.94;;;19.17;100.00
20624;BME280;10471;42.736;23.346;2023-05-27T09:32:27;95623.38;;;19.16;100.00
20624;BME280;10471;42.736;23.346;2023-05-27T09:34:54;95625.22;;;19.24;100.00
20624;BME280;10471;42.736;23.346;2023-05-27T09:37:24;95620.47;;;19.29;100.00
20624;BME280;10471;42.736;23.346;2023-05-27T09:39:51;95620.72;;;19.45;100.00
20624;BME280;10471;42.736;23.346;2023-05-27T09:42:17;95626.59;;;19.59;100.00
20624;BME280;10471;42.736;23.346;2023-05-27T09:44:45;95614.88;;;19.72;100.00
20624;BME280;10471;42.736;23.346;2023-05-27T09:47:18;95626.75;;;19.82;100.00
20624;BME280;10471;42.736;23.346;2023-05-27T09:49:47;95617.69;;;19.95;100.00
20624;BME280;10471;42.736;23.346;2023-05-27T09:52:14;95610.72;;;20.03;100.00
20624;BME280;10471;42.736;23.346;2023-05-27T09:54:43;95615.59;;;20.21;100.00
20624;BME280;10471;42.736;23.346;2023-05-27T09:57:10;95613.44;;;20.47;100.00
20624;BME280;10471;42.736;23.346;2023-05-27T09:59:37;95612.38;;;20.72;100.00
20624;BME280;10471;42.736;23.346;2023-05-27T10:02:02;95616.00;;;20.88;100.00
20624;BME280;10471;42.736;23.346;2023-05-27T10:04:28;95607.09;;;21.19;100.00
20624;BME280;10471;42.736;23.346;2023-05-27T10:06:55;95607.09;;;21.67;100.00
20624;BME280;10471;42.736;23.346;2023-05-27T10:09:21;95610.03;;;22.01;100.00
20624;BME280;10471;42.736;23.346;2023-05-27T10:11:48;95606.28;;;22.18;100.00
20624;BME280;10471;42.736;23.346;2023-05-27T10:14:15;95598.28;;;22.60;100.00
20624;BME280;10471;42.736;23.346;2023-05-27T10:16:51;95602.47;;;22.73;100.00
20624;BME280;10471;42.736;23.346;2023-05-27T10:19:18;95602.63;;;22.80;100.00
20624;BME280;10471;42.736;23.346;2023-05-27T10:21:45;95600.56;;;22.89;100.00
20624;BME280;10471;42.736;23.346;2023-05-27T10:24:10;95591.63;;;23.16;100.00
20624;BME280;10471;42.736;23.346;2023-05-27T10:26:40;95590.88;;;23.65;100.00
20624;BME280;10471;42.736;23.346;2023-05-27T10:29:12;95591.75;;;24.03;100.00
20624;BME280;10471;42.736;23.346;2023-05-27T10:31:52;95587.63;;;24.28;95.68
20624;BME280;10471;42.736;23.346;2023-05-27T10:34:18;95584.09;;;24.43;88.86
20624;BME280;10471;42.736;23.346;2023-05-27T10:36:45;95583.00;;;24.66;87.81
20624;BME280;10471;42.736;23.346;2023-05-27T10:39:18;95581.72;;;24.60;83.21
20624;BME280;10471;42.736;23.346;2023-05-27T10:41:51;95581.06;;;24.67;90.32
20624;BME280;10471;42.736;23.346;2023-05-27T10:44:34;95581.09;;;24.48;81.47
20624;BME280;10471;42.736;23.346;2023-05-27T10:47:09;95568.31;;;24.45;81.51
20624;BME280;10471;42.736;23.346;2023-05-27T10:49:46;95572.28;;;24.32;80.08
20624;BME280;10471;42.736;23.346;2023-05-27T10:52:15;95569.88;;;24.27;86.42
20624;BME280;10471;42.736;23.346;2023-05-27T10:57:07;95562.03;;;24.00;86.53
20624;BME280;10471;42.736;23.346;2023-05-27T10:59:54;95561.19;;;24.15;89.64
20624;BME280;10471;42.736;23.346;2023-05-27T11:02:20;95568.91;;;24.16;86.97
20624;BME280;10471;42.736;23.346;2023-05-27T11:04:48;95567.56;;;24.26;90.43
20624;BME280;10471;42.736;23.346;2023-05-27T11:07:20;95561.81;;;24.46;85.35
20624;BME280;10471;42.736;23.346;2023-05-27T11:12:20;95552.66;;;24.95;74.33
20624;BME280;10471;42.736;23.346;2023-05-27T11:14:53;95553.75;;;24.91;77.39
20624;BME280;10471;42.736;23.346;2023-05-27T11:17:19;95551.34;;;24.86;75.61
20624;BME280;10471;42.736;23.346;2023-05-27T11:19:45;95550.25;;;24.68;68.47
20624;BME280;10471;42.736;23.346;2023-05-27T11:22:12;95540.25;;;24.46;76.83
20624;BME280;10471;42.736;23.346;2023-05-27T11:24:38;95547.91;;;24.44;71.80
20624;BME280;10471;42.736;23.346;2023-05-27T11:27:10;95540.78;;;24.36;71.24
20624;BME280;10471;42.736;23.346;2023-05-27T11:29:36;95530.66;;;24.71;71.07
20624;BME280;10471;42.736;23.346;2023-05-27T11:32:03;95538.22;;;24.62;66.13
20624;BME280;10471;42.736;23.346;2023-05-27T11:34:29;95532.22;;;24.72;70.90
20624;BME280;10471;42.736;23.346;2023-05-27T11:36:54;95533.19;;;24.83;68.13
20624;BME280;10471;42.736;23.346;2023-05-27T11:39:21;95520.69;;;25.19;70.17
20624;BME280;10471;42.736;23.346;2023-05-27T11:41:53;95524.44;;;25.63;67.55
20624;BME280;10471;42.736;23.346;2023-05-27T11:44:20;95532.31;;;25.75;64.76
20624;BME280;10471;42.736;23.346;2023-05-27T11:46:47;95524.38;;;25.60;62.41
20624;BME280;10471;42.736;23.346;2023-05-27T11:49:15;95517.09;;;25.93;61.44
20624;BME280;10471;42.736;23.346;2023-05-27T11:51:46;95522.69;;;25.74;62.95
20624;BME280;10471;42.736;23.346;2023-05-27T11:54:19;95522.59;;;26.00;61.08
20624;BME280;10471;42.736;23.346;2023-05-27T11:56:47;95517.34;;;26.14;60.55
20624;BME280;10471;42.736;23.346;2023-05-27T11:59:12;95517.59;;;26.35;59.21
20624;BME280;10471;42.736;23.346;2023-05-27T12:01:42;95516.00;;;26.66;58.30
20624;BME280;10471;42.736;23.346;2023-05-27T12:04:08;95507.72;;;26.92;58.21
20624;BME280;10471;42.736;23.346;2023-05-27T12:06:36;95499.00;;;27.09;56.38
20624;BME280;10471;42.736;23.346;2023-05-27T12:09:03;95503.34;;;27.20;53.20
20624;BME280;10471;42.736;23.346;2023-05-27T12:11:28;95497.53;;;27.22;54.68
20624;BME280;10471;42.736;23.346;2023-05-27T12:13:54;95492.25;;;27.43;53.58
20624;BME280;10471;42.736;23.346;2023-05-27T12:16:19;95497.66;;;27.39;53.60
20624;BME280;10471;42.736;23.346;2023-05-27T12:18:45;95489.91;;;26.88;53.45
20624;BME280;10471;42.736;23.346;2023-05-27T12:21:10;95488.13;;;27.02;54.86
20624;BME280;10471;42.736;23.346;2023-05-27T12:23:36;95487.09;;;27.20;52.41
20624;BME280;10471;42.736;23.346;2023-05-27T12:26:01;95477.34;;;27.09;53.44
20624;BME280;10471;42.736;23.346;2023-05-27T12:28:27;95480.22;;;26.44;52.22
20624;BME280;10471;42.736;23.346;2023-05-27T12:30:52;95469.88;;;26.49;55.48
20624;BME280;10471;42.736;23.346;2023-05-27T12:33:18;95461.88;;;26.27;55.68
20624;BME280;10471;42.736;23.346;2023-05-27T12:35:46;95461.75;;;26.52;56.24
20624;BME280;10471;42.736;23.346;2023-05-27T12:38:12;95454.72;;;26.41;57.07
20624;BME280;10471;42.736;23.346;2023-05-27T12:40:40;95456.13;;;26.32;54.41
20624;BME280;10471;42.736;23.346;2023-05-27T12:43:06;95451.28;;;26.48;54.31
20624;BME280;10471;42.736;23.346;2023-05-27T12:45:31;95448.75;;;26.68;52.54
20624;BME280;10471;42.736;23.346;2023-05-27T12:47:58;95442.50;;;27.04;53.88
20624;BME280;10471;42.736;23.346;2023-05-27T12:50:24;95440.47;;;27.55;54.33